Dades meteomassalio
Diari Summary for Gener 22, 2017 Units:  English    Metric   Both
« Previous Day
Next Day »
Diari Semanal Mensual Anual Personalitzat
  Maxima: Minima: Mijana:
Temperatura: TemperatureC °F 4.9 °F 6.2 °F
Rosada: DewpointC °F 1.7 °F 3 °F
Humitat: Humidity % 68 % 80 %
Velocitat del vent: WindSpeedKMH mph 0.0 mph 6.2 mph
Racha vent: WindSpeedGustKMH mph - -
Vent:- - WNW
Pressio: PressurehPa in 1017.5 in -
Pluja: 2.3 in    
Historical Graphs
 
 
Tabular Data for Gener 22, 2017
Time Temperature Dew Point Pressure Wind Wind Speed Wind Gust Humidity Rainfall Rate (Hourly) solar Conditions
TemperatureC °F DewpointC °F PressurehPa in Calm     Humidity % HourlyPrecipMM in SolarRadiationWatts/m^2 W/m2 Conditions
00:03 6.5 °F 3.5 °F 1019.2 in Calm     81 % 0.0 in 0.0 W/m2 CLR
00:08 6.5 °F 3.5 °F 1019.2 in Calm     81 % 0.0 in 0.0 W/m2 CLR
00:13 6.4 °F 3.4 °F 1019.2 in Calm     81 % 0.0 in 0.0 W/m2 CLR
00:18 6.2 °F 3.4 °F 1019.2 in Calm     82 % 0.0 in 0.0 W/m2 CLR
00:23 6.0 °F 3.5 °F 1019.5 in Calm     84 % 0.0 in 0.0 W/m2 CLR
00:28 5.8 °F 3.3 °F 1019.5 in Calm     84 % 0.0 in 0.0 W/m2 CLR
00:33 5.7 °F 3.4 °F 1019.5 in Calm     85 % 0.0 in 0.0 W/m2 CLR
00:38 5.6 °F 3.4 °F 1019.5 in Calm     86 % 0.0 in 0.0 W/m2 CLR
00:43 5.6 °F 3.4 °F 1019.5 in Calm     86 % 0.0 in 0.0 W/m2 CLR
00:48 5.6 °F 3.4 °F 1019.2 in Calm     86 % 0.0 in 0.0 W/m2 CLR
00:53 5.8 °F 3.7 °F 1019.2 in Calm     86 % 0.0 in 0.0 W/m2 CLR
00:58 6.1 °F 3.7 °F 1018.8 in West 3.7 mph 3.7 mph 85 % 0.0 in 0.0 W/m2 CLR
01:03 6.1 °F 3.6 °F 1018.8 in Calm     84 % 0.0 in 0.0 W/m2 CLR
01:08 6.1 °F 3.7 °F 1018.8 in Calm     85 % 0.0 in 0.0 W/m2 CLR
01:13 6.1 °F 3.6 °F 1018.8 in Calm     84 % 0.0 in 0.0 W/m2 CLR
01:18 6.1 °F 3.6 °F 1018.8 in Calm     84 % 0.0 in 0.0 W/m2 CLR
01:23 6.0 °F 3.7 °F 1018.8 in Calm     85 % 0.0 in 0.0 W/m2 CLR
01:28 6.1 °F 3.7 °F 1018.5 in WNW 13.0 mph 13.0 mph 85 % 0.0 in 0.0 W/m2 CLR
01:33 6.5 °F 3.8 °F 1018.5 in WNW 17.7 mph 17.7 mph 83 % 0.0 in 0.0 W/m2 CLR
01:38 6.9 °F 3.7 °F 1018.5 in WNW 16.7 mph 16.7 mph 80 % 0.0 in 0.0 W/m2 CLR
01:43 7.2 °F 3.8 °F 1018.5 in West 20.9 mph 20.9 mph 79 % 0.0 in 0.0 W/m2 CLR
01:48 7.2 °F 3.7 °F 1018.5 in West 14.8 mph 14.8 mph 78 % 0.0 in 0.0 W/m2 CLR
01:53 7.1 °F 3.6 °F 1018.2 in West 16.7 mph 16.7 mph 78 % 0.0 in 0.0 W/m2 CLR
01:58 7.1 °F 3.5 °F 1018.2 in West 18.5 mph 18.5 mph 78 % 0.0 in 0.0 W/m2 CLR
02:03 7.0 °F 3.4 °F 1018.2 in West 16.7 mph 16.7 mph 78 % 0.0 in 0.0 W/m2 CLR
02:08 7.0 °F 3.2 °F 1018.2 in West 9.3 mph 9.3 mph 77 % 0.0 in 0.0 W/m2 CLR
02:13 6.9 °F 3.3 °F 1018.2 in WSW 6.4 mph 6.4 mph 78 % 0.0 in 0.0 W/m2 CLR
02:18 6.7 °F 3.3 °F 1018.5 in WSW 8.0 mph 8.0 mph 79 % 0.0 in 0.0 W/m2 CLR
02:23 6.6 °F 3.2 °F 1018.2 in WSW 7.4 mph 7.4 mph 79 % 0.0 in 0.0 W/m2 CLR
02:28 6.7 °F 3.3 °F 1018.2 in West 7.4 mph 7.4 mph 79 % 0.0 in 0.0 W/m2 CLR
02:33 6.7 °F 3.2 °F 1018.2 in West 16.7 mph 16.7 mph 78 % 0.0 in 0.0 W/m2 CLR
02:38 6.8 °F 3.2 °F 1018.2 in West 14.8 mph 14.8 mph 78 % 0.0 in 0.0 W/m2 CLR
02:43 6.7 °F 3.2 °F 1018.5 in Calm     78 % 0.0 in 0.0 W/m2 CLR
02:48 6.6 °F 3.2 °F 1018.2 in Calm     79 % 0.0 in 0.0 W/m2 CLR
02:53 6.4 °F 3.2 °F 1018.2 in SW 7.4 mph 7.4 mph 80 % 0.0 in 0.0 W/m2 CLR
02:58 6.3 °F 3.1 °F 1018.2 in West 9.3 mph 9.3 mph 80 % 0.0 in 0.0 W/m2 CLR
03:03 6.3 °F 2.9 °F 1018.5 in Calm     79 % 0.0 in 0.0 W/m2 CLR
03:08 6.3 °F 3.1 °F 1018.2 in Calm     80 % 0.0 in 0.0 W/m2 CLR
03:13 6.3 °F 3.1 °F 1018.2 in Calm     80 % 0.0 in 0.0 W/m2 CLR
03:18 6.2 °F 3.0 °F 1018.2 in Calm     80 % 0.0 in 0.0 W/m2 CLR
03:23 6.2 °F 3.0 °F 1018.2 in SW 1.6 mph 1.6 mph 80 % 0.0 in 0.0 W/m2 CLR
03:28 6.2 °F 2.9 °F 1018.2 in SW 8.0 mph 8.0 mph 80 % 0.0 in 0.0 W/m2 CLR
03:33 6.1 °F 2.9 °F 1018.2 in Calm     80 % 0.0 in 0.0 W/m2 CLR
03:38 6.1 °F 2.7 °F 1018.2 in Calm     79 % 0.0 in 0.0 W/m2 CLR
03:43 6.1 °F 2.7 °F 1018.2 in WSW 12.9 mph 12.9 mph 79 % 0.0 in 0.0 W/m2 CLR
03:48 6.1 °F 2.6 °F 1018.2 in WSW 14.8 mph 14.8 mph 78 % 0.0 in 0.0 W/m2 CLR
03:53 6.2 °F 2.3 °F 1017.8 in WSW 20.4 mph 20.4 mph 76 % 0.0 in 0.0 W/m2 CLR
03:58 6.3 °F 2.4 °F 1018.2 in WSW 20.4 mph 20.4 mph 76 % 0.0 in 0.0 W/m2 CLR
04:03 6.3 °F 2.2 °F 1018.2 in WSW 18.5 mph 18.5 mph 75 % 0.0 in 0.0 W/m2 CLR
04:08 6.5 °F 2.0 °F 1017.8 in West 27.8 mph 27.8 mph 73 % 0.0 in 0.0 W/m2 CLR
04:13 6.6 °F 2.2 °F 1017.8 in West 18.5 mph 18.5 mph 74 % 0.0 in 0.0 W/m2 CLR
04:18 6.4 °F 2.3 °F 1017.8 in West 25.9 mph 25.9 mph 75 % 0.3 in 0.0 W/m2 RA
04:23 6.5 °F 2.0 °F 1017.8 in WSW 27.8 mph 27.8 mph 73 % 0.3 in 0.0 W/m2 CLR
04:28 6.6 °F 1.9 °F 1017.8 in West 16.7 mph 16.7 mph 72 % 0.3 in 0.0 W/m2 CLR
04:33 6.7 °F 2.0 °F 1018.2 in West 16.7 mph 16.7 mph 72 % 0.3 in 0.0 W/m2 CLR
04:38 6.6 °F 1.9 °F 1018.2 in Calm     72 % 0.3 in 0.0 W/m2 CLR
04:43 6.6 °F 2.1 °F 1018.5 in Calm     73 % 0.3 in 0.0 W/m2 CLR
04:48 6.4 °F 2.3 °F 1018.5 in Calm     75 % 0.3 in 0.0 W/m2 CLR
04:53 6.3 °F 2.2 °F 1018.2 in Calm     75 % 0.3 in 0.0 W/m2 CLR
04:58 6.2 °F 2.1 °F 1018.2 in NNW 7.4 mph 7.4 mph 75 % 0.3 in 0.0 W/m2 CLR
05:03 6.1 °F 2.2 °F 1018.2 in WSW 7.4 mph 7.4 mph 76 % 0.3 in 0.0 W/m2 CLR
05:08 6.2 °F 2.2 °F 1018.2 in WSW 11.1 mph 11.1 mph 76 % 0.3 in 0.0 W/m2 CLR
05:13 6.1 °F 2.2 °F 1018.2 in Calm     76 % 0.3 in 0.0 W/m2 CLR
05:18 6.0 °F 2.4 °F 1018.2 in Calm     78 % 0.0 in 0.0 W/m2 CLR
05:23 5.9 °F 2.3 °F 1017.8 in Calm     78 % 0.0 in 0.0 W/m2 CLR
05:28 5.8 °F 2.4 °F 1017.8 in Calm     79 % 0.0 in 0.0 W/m2 CLR
05:33 5.7 °F 2.6 °F 1017.8 in Calm     80 % 0.3 in 0.0 W/m2 RA
05:38 5.7 °F 2.8 °F 1017.8 in Calm     82 % 0.3 in 0.0 W/m2
05:43 5.6 °F 2.7 °F 1017.8 in Calm     82 % 0.3 in 0.0 W/m2 CLR
05:48 5.5 °F 2.8 °F 1017.8 in Calm     83 % 0.3 in 0.0 W/m2 CLR
05:53 5.6 °F 3.1 °F 1017.8 in Calm     84 % 0.3 in 0.0 W/m2 CLR
05:58 5.4 °F 2.9 °F 1017.8 in Calm     84 % 0.3 in 0.0 W/m2 CLR
06:03 5.3 °F 2.9 °F 1018.2 in Calm     85 % 0.3 in 0.0 W/m2 CLR
06:08 5.3 °F 3.1 °F 1018.2 in Calm     86 % 0.3 in 0.0 W/m2 CLR
06:13 5.2 °F 3.1 °F 1018.2 in Calm     86 % 0.3 in 0.0 W/m2 CLR
06:18 5.2 °F 3.2 °F 1018.2 in Calm     87 % 0.3 in 0.0 W/m2 CLR
06:23 5.2 °F 3.2 °F 1018.2 in Calm     87 % 0.3 in 0.0 W/m2 CLR
06:28 5.2 °F 3.2 °F 1018.2 in Calm     87 % 0.3 in 0.0 W/m2 CLR
06:33 5.2 °F 3.2 °F 1018.2 in Calm     87 % 0.0 in 0.0 W/m2 CLR
06:38 5.2 °F 3.2 °F 1018.2 in Calm     87 % 0.0 in 0.0 W/m2 CLR
06:43 5.2 °F 3.1 °F 1018.2 in Calm     86 % 0.0 in 0.0 W/m2 CLR
06:49 5.2 °F 3.1 °F 1018.2 in Calm     86 % 0.0 in 0.0 W/m2 CLR
06:54 5.2 °F 2.8 °F 1018.2 in Calm     85 % 0.0 in 0.0 W/m2 CLR
06:59 5.2 °F 2.8 °F 1018.2 in SW 3.7 mph   85 % 0.0 in 0.0 W/m2 CLR
07:04 5.2 °F 2.7 °F 1018.2 in Calm     84 % 0.0 in 0.0 W/m2 CLR
07:09 5.1 °F 2.4 °F 1018.2 in WSW 11.1 mph 11.1 mph 83 % 0.0 in 0.0 W/m2 CLR
07:14 5.2 °F 2.4 °F 1017.8 in West 12.9 mph 12.9 mph 82 % 0.0 in 0.0 W/m2 CLR
07:19 5.2 °F 2.5 °F 1017.8 in West 16.7 mph 16.7 mph 83 % 0.0 in 0.0 W/m2 CLR
07:24 5.1 °F 2.3 °F 1017.8 in WSW 13.0 mph 13.0 mph 82 % 0.0 in 0.0 W/m2 CLR
07:29 5.1 °F 2.4 °F 1017.8 in WSW 9.3 mph 9.3 mph 83 % 0.0 in 0.0 W/m2 CLR
07:34 5.1 °F 2.4 °F 1017.8 in SW 11.1 mph 11.1 mph 83 % 0.0 in 0.0 W/m2 CLR
07:39 5.1 °F 2.1 °F 1017.8 in WSW 14.8 mph 14.8 mph 81 % 0.0 in 0.0 W/m2 CLR
07:44 5.2 °F 2.2 °F 1018.2 in Calm     81 % 0.0 in 0.0 W/m2 CLR
07:49 5.2 °F 2.2 °F 1018.2 in Calm     81 % 0.0 in 0.0 W/m2 CLR
07:54 5.1 °F 2.3 °F 1018.2 in Calm     82 % 0.0 in 0.0 W/m2 CLR
07:59 5.0 °F 2.3 °F 1018.5 in Calm     83 % 0.0 in 0.0 W/m2 CLR
08:04 4.9 °F 2.2 °F 1018.5 in Calm     83 % 0.0 in 0.0 W/m2 CLR
08:09 4.9 °F 2.1 °F 1018.5 in Calm     82 % 0.0 in 0.0 W/m2 CLR
08:14 5.0 °F 2.0 °F 1018.5 in Calm     81 % 0.0 in 0.0 W/m2 CLR
08:19 5.0 °F 2.0 °F 1018.5 in Calm     81 % 0.0 in 0.0 W/m2 OVC
08:24 5.0 °F 1.8 °F 1018.5 in Calm     80 % 0.0 in 0.0 W/m2 OVC
08:29 5.1 °F 1.9 °F 1018.5 in Calm     80 % 0.0 in 0.0 W/m2 OVC
08:34 5.1 °F 1.9 °F 1018.5 in Calm     80 % 0.0 in 0.0 W/m2 OVC
08:39 5.1 °F 1.9 °F 1018.5 in Calm     80 % 0.0 in 5.0 W/m2 OVC
08:44 5.1 °F 1.8 °F 1018.5 in Calm     79 % 0.0 in 14.0 W/m2 BKN
08:49 5.2 °F 1.9 °F 1018.5 in Calm     79 % 0.0 in 25.0 W/m2 BKN
08:54 5.3 °F 1.9 °F 1018.5 in Calm     79 % 0.0 in 40.0 W/m2 BKN
08:59 5.3 °F 1.8 °F 1018.5 in West 1.9 mph   78 % 0.0 in 60.0 W/m2 BKN
09:04 5.5 °F 1.8 °F 1018.5 in Calm     77 % 0.0 in 69.0 W/m2 BKN
09:09 5.6 °F 1.8 °F 1018.5 in Calm     77 % 0.0 in 72.0 W/m2 BKN
09:14 5.7 °F 1.8 °F 1018.5 in Calm     76 % 0.0 in 76.0 W/m2 BKN
09:19 5.7 °F 1.8 °F 1018.5 in Calm     76 % 0.0 in 77.0 W/m2 BKN
09:24 5.7 °F 2.0 °F 1018.5 in WNW 6.4 mph 6.4 mph 77 % 0.0 in 81.0 W/m2 BKN
09:29 5.8 °F 1.9 °F 1018.8 in WNW 7.4 mph 7.4 mph 76 % 0.0 in 69.0 W/m2 BKN
09:34 5.8 °F 1.9 °F 1018.8 in Calm     76 % 0.0 in 42.0 W/m2 BKN
09:39 5.9 °F 1.8 °F 1018.8 in Calm     75 % 0.0 in 42.0 W/m2 BKN
09:44 5.9 °F 1.8 °F 1018.8 in Calm     75 % 0.0 in 53.0 W/m2 BKN
09:49 5.9 °F 1.8 °F 1019.2 in Calm     75 % 0.0 in 53.0 W/m2 BKN
09:54 6.0 °F 1.9 °F 1019.2 in Calm     75 % 0.0 in 49.0 W/m2 BKN
09:59 6.0 °F 1.9 °F 1019.2 in Calm     75 % 0.0 in 76.0 W/m2 BKN
10:04 6.0 °F 1.9 °F 1019.2 in Calm     75 % 0.0 in 70.0 W/m2 BKN
10:09 6.1 °F 1.9 °F 1019.2 in Calm     75 % 0.0 in 58.0 W/m2 BKN
10:14 6.1 °F 2.0 °F 1019.2 in Calm     75 % 0.0 in 93.0 W/m2 BKN
10:19 6.1 °F 2.0 °F 1019.2 in Calm     75 % 0.0 in 91.0 W/m2 BKN
10:24 6.2 °F 2.1 °F 1019.2 in Calm     75 % 0.0 in 111.0 W/m2 BKN
10:25 6.2 °F 2.1 °F 1019.2 in Calm     75 % 0.0 in 114.0 W/m2 BKN
10:30 6.3 °F 2.2 °F 1019.2 in Calm     75 % 0.0 in 165.0 W/m2 BKN
10:35 6.5 °F 2.0 °F 1018.8 in West 5.6 mph 5.6 mph 73 % 0.0 in 167.0 W/m2 BKN
10:40 6.7 °F 2.0 °F 1018.8 in West 14.8 mph 14.8 mph 72 % 0.0 in 158.0 W/m2 BKN
10:45 6.8 °F 1.9 °F 1018.8 in West 17.7 mph 17.7 mph 71 % 0.0 in 111.0 W/m2 BKN
10:50 6.8 °F 1.9 °F 1018.8 in WNW 18.5 mph 18.5 mph 71 % 0.0 in 137.0 W/m2 BKN
10:55 6.8 °F 1.9 °F 1018.8 in WNW 16.7 mph 16.7 mph 71 % 0.0 in 142.0 W/m2 BKN
11:00 6.8 °F 1.7 °F 1018.8 in WNW 20.4 mph 20.4 mph 70 % 0.0 in 195.0 W/m2 BKN
11:05 6.8 °F 1.9 °F 1019.2 in WNW 16.7 mph 16.7 mph 71 % 0.0 in 146.0 W/m2 BKN
11:10 6.9 °F 2.0 °F 1019.2 in WNW 13.0 mph 13.0 mph 71 % 0.0 in 139.0 W/m2 BKN
11:15 6.9 °F 2.0 °F 1019.2 in WNW 22.2 mph 22.2 mph 71 % 0.0 in 221.0 W/m2 BKN
11:20 6.9 °F 2.0 °F 1019.2 in WNW 16.7 mph 16.7 mph 71 % 0.0 in 202.0 W/m2 BKN
11:25 7.0 °F 2.1 °F 1019.2 in WNW 16.7 mph 16.7 mph 71 % 0.0 in 151.0 W/m2 BKN
11:30 7.1 °F 2.3 °F 1019.2 in NW 11.1 mph 11.1 mph 72 % 0.0 in 190.0 W/m2 BKN
11:35 7.1 °F 1.9 °F 1019.2 in WNW 22.2 mph 22.2 mph 70 % 0.0 in 207.0 W/m2 BKN
11:40 7.1 °F 1.9 °F 1019.5 in WNW 16.7 mph 16.7 mph 70 % 0.0 in 195.0 W/m2 BKN
11:45 7.1 °F 2.0 °F 1019.5 in WNW 7.4 mph 7.4 mph 70 % 0.0 in 211.0 W/m2 BKN
11:50 7.2 °F 2.1 °F 1019.5 in WNW 14.8 mph 14.8 mph 70 % 0.0 in 383.0 W/m2 BKN
11:55 7.3 °F 2.2 °F 1019.5 in NW 18.5 mph 18.5 mph 70 % 0.0 in 209.0 W/m2 SCT
12:00 7.3 °F 2.2 °F 1019.5 in NW 16.7 mph 16.7 mph 70 % 0.0 in 178.0 W/m2 BKN
12:05 7.3 °F 2.2 °F 1019.5 in NW 9.3 mph 9.3 mph 70 % 0.0 in 151.0 W/m2 BKN
12:10 7.3 °F 2.2 °F 1019.5 in NW 14.8 mph 14.8 mph 70 % 0.0 in 149.0 W/m2 BKN
12:15 7.2 °F 1.7 °F 1019.5 in NNW 14.8 mph 14.8 mph 68 % 0.0 in 135.0 W/m2 BKN
12:20 7.2 °F 1.9 °F 1019.5 in NNW 11.1 mph 11.1 mph 69 % 0.0 in 134.0 W/m2 BKN
12:25 7.1 °F 2.2 °F 1019.2 in North 11.1 mph 11.1 mph 71 % 0.0 in 148.0 W/m2 BKN
12:30 6.9 °F 2.2 °F 1019.2 in North 11.3 mph 11.3 mph 72 % 0.0 in 144.0 W/m2 BKN
12:35 6.8 °F 2.1 °F 1019.2 in North 11.1 mph 11.1 mph 72 % 0.0 in 137.0 W/m2 BKN
12:40 6.8 °F 2.3 °F 1019.2 in North 7.4 mph 7.4 mph 73 % 0.0 in 134.0 W/m2 BKN
12:45 6.8 °F 2.3 °F 1019.2 in North 9.3 mph 9.3 mph 73 % 0.0 in 120.0 W/m2 BKN
12:50 6.8 °F 2.7 °F 1018.8 in North 4.8 mph 4.8 mph 75 % 0.0 in 130.0 W/m2 BKN
12:55 6.8 °F 2.7 °F 1018.8 in NNW 9.7 mph 9.7 mph 75 % 0.0 in 111.0 W/m2 BKN
13:00 6.7 °F 2.6 °F 1018.8 in NW 9.3 mph 9.3 mph 75 % 0.0 in 111.0 W/m2 BKN
13:05 6.6 °F 2.7 °F 1018.8 in NW 5.6 mph   76 % 0.0 in 120.0 W/m2 BKN
13:10 6.6 °F 2.5 °F 1018.8 in Calm     75 % 0.0 in 146.0 W/m2 BKN
13:16 6.7 °F 2.9 °F 1018.5 in NNW 12.9 mph 12.9 mph 77 % 0.0 in 193.0 W/m2 BKN
13:21 6.8 °F 2.7 °F 1018.5 in NW 11.1 mph 11.1 mph 75 % 0.0 in 156.0 W/m2 BKN
13:26 6.8 °F 2.9 °F 1018.5 in NW 9.3 mph 9.3 mph 76 % 0.0 in 109.0 W/m2 BKN
13:31 6.8 °F 2.4 °F 1018.5 in WNW 9.7 mph 9.7 mph 74 % 0.0 in 111.0 W/m2 BKN
13:36 6.8 °F 2.4 °F 1018.5 in NW 12.9 mph 12.9 mph 74 % 0.0 in 121.0 W/m2 BKN
13:41 6.7 °F 2.2 °F 1018.2 in NW 13.0 mph 13.0 mph 73 % 0.0 in 123.0 W/m2 BKN
13:46 6.7 °F 2.2 °F 1018.2 in NW 16.7 mph 16.7 mph 73 % 0.0 in 123.0 W/m2 BKN
13:51 6.7 °F 2.2 °F 1018.2 in NW 18.5 mph 18.5 mph 73 % 0.0 in 114.0 W/m2 BKN
13:56 6.7 °F 2.4 °F 1018.2 in NW 20.4 mph 20.4 mph 74 % 0.0 in 139.0 W/m2 BKN
14:01 6.7 °F 2.4 °F 1018.2 in NW 17.7 mph 17.7 mph 74 % 0.0 in 114.0 W/m2 BKN
14:06 6.7 °F 2.4 °F 1018.2 in NW 18.5 mph 18.5 mph 74 % 0.0 in 100.0 W/m2 BKN
14:11 6.7 °F 2.4 °F 1018.2 in NW 18.5 mph 18.5 mph 74 % 0.0 in 76.0 W/m2 BKN
14:16 6.7 °F 2.4 °F 1017.8 in NW 14.8 mph 14.8 mph 74 % 0.0 in 81.0 W/m2 BKN
14:21 6.7 °F 2.4 °F 1017.8 in NW 14.8 mph 14.8 mph 74 % 0.0 in 67.0 W/m2 BKN
14:26 6.8 °F 2.7 °F 1017.8 in WNW 11.3 mph 11.3 mph 75 % 0.0 in 74.0 W/m2 BKN
14:31 6.8 °F 2.4 °F 1017.8 in WNW 16.7 mph 16.7 mph 74 % 0.0 in 76.0 W/m2 BKN
14:36 6.8 °F 2.7 °F 1017.8 in WNW 9.3 mph 9.3 mph 75 % 0.0 in 88.0 W/m2 BKN
14:41 6.9 °F 2.8 °F 1017.8 in Calm     75 % 0.0 in 76.0 W/m2 BKN
14:46 6.9 °F 2.8 °F 1017.8 in Calm     75 % 0.0 in 70.0 W/m2 BKN
14:51 7.0 °F 2.9 °F 1017.8 in West 9.3 mph 9.3 mph 75 % 0.0 in 90.0 W/m2 BKN
14:56 7.0 °F 2.9 °F 1017.8 in WNW 13.0 mph 13.0 mph 75 % 0.0 in 90.0 W/m2 BKN
15:01 7.1 °F 2.9 °F 1017.8 in WNW 17.7 mph 17.7 mph 75 % 0.0 in 90.0 W/m2 BKN
15:06 7.1 °F 3.0 °F 1017.5 in WNW 14.8 mph 14.8 mph 75 % 0.0 in 102.0 W/m2 BKN
15:11 7.1 °F 3.0 °F 1017.5 in WNW 7.4 mph 7.4 mph 75 % 0.0 in 98.0 W/m2 BKN
15:16 7.2 °F 3.1 °F 1017.5 in Calm     75 % 0.0 in 81.0 W/m2 BKN
15:21 7.3 °F 3.1 °F 1017.5 in WNW 16.7 mph 16.7 mph 75 % 0.0 in 65.0 W/m2 BKN
15:26 7.3 °F 3.2 °F 1017.8 in WNW 16.7 mph 16.7 mph 75 % 0.0 in 53.0 W/m2 BKN
15:31 7.3 °F 3.0 °F 1017.8 in Calm     74 % 0.0 in 44.0 W/m2 BKN
15:36 7.4 °F 3.2 °F 1017.8 in Calm     75 % 0.0 in 51.0 W/m2 BKN
15:41 7.4 °F 3.1 °F 1017.8 in Calm     74 % 0.0 in 47.0 W/m2 BKN
15:46 7.4 °F 3.1 °F 1017.8 in Calm     74 % 0.0 in 40.0 W/m2 BKN
15:51 7.5 °F 3.2 °F 1017.8 in Calm     74 % 0.0 in 39.0 W/m2 BKN
15:56 7.5 °F 3.3 °F 1017.8 in Calm     75 % 0.0 in 37.0 W/m2 BKN
16:01 7.5 °F 3.3 °F 1017.8 in Calm     75 % 0.0 in 40.0 W/m2 BKN
16:06 7.5 °F 3.3 °F 1017.8 in NW 9.3 mph 9.3 mph 75 % 0.0 in 35.0 W/m2 BKN
16:11 7.5 °F 3.3 °F 1018.2 in Calm     75 % 0.0 in 33.0 W/m2 BKN
16:16 7.5 °F 3.2 °F 1018.2 in Calm     74 % 0.0 in 32.0 W/m2 BKN
16:21 7.5 °F 3.2 °F 1017.8 in Calm     74 % 0.0 in 33.0 W/m2 BKN
16:26 7.5 °F 3.6 °F 1018.2 in Calm     76 % 0.0 in 28.0 W/m2 BKN
16:31 7.4 °F 3.8 °F 1018.2 in Calm     78 % 0.0 in 30.0 W/m2 BKN
16:36 7.4 °F 3.8 °F 1018.2 in Calm     78 % 0.0 in 26.0 W/m2 SCT
16:41 7.3 °F 3.6 °F 1018.2 in Calm     77 % 0.0 in 19.0 W/m2 SCT
16:46 7.3 °F 3.9 °F 1018.2 in Calm     79 % 0.0 in 19.0 W/m2 FEW
16:51 7.3 °F 4.1 °F 1018.2 in Calm     80 % 0.3 in 19.0 W/m2 RA
16:56 7.1 °F 3.9 °F 1018.2 in Calm     80 % 0.3 in 18.0 W/m2 BKN
17:01 7.1 °F 3.8 °F 1018.2 in Calm     80 % 0.3 in 19.0 W/m2 CLR
17:06 7.0 °F 3.9 °F 1018.2 in Calm     81 % 0.3 in 18.0 W/m2 OVC
17:11 7.0 °F 3.8 °F 1018.5 in Calm     80 % 0.3 in 14.0 W/m2 OVC
17:16 7.0 °F 4.1 °F 1018.2 in Calm     82 % 0.3 in 14.0 W/m2 OVC
17:21 6.9 °F 4.2 °F 1018.2 in Calm     83 % 0.3 in 11.0 W/m2 OVC
17:26 6.8 °F 4.0 °F 1018.2 in Calm     82 % 0.3 in 11.0 W/m2 OVC
17:31 6.8 °F 4.2 °F 1018.2 in Calm     83 % 0.3 in 11.0 W/m2 OVC
17:36 6.7 °F 4.2 °F 1018.2 in Calm     84 % 0.3 in 9.0 W/m2 OVC
17:41 6.7 °F 4.3 °F 1018.2 in Calm     85 % 0.3 in 5.0 W/m2 OVC
17:46 6.6 °F 4.3 °F 1018.2 in Calm     85 % 0.3 in 0.0 W/m2 OVC
17:51 6.6 °F 4.3 °F 1018.2 in Calm     85 % 0.0 in 0.0 W/m2 OVC
17:56 6.7 °F 4.2 °F 1018.2 in Calm     84 % 0.0 in 0.0 W/m2 OVC
18:01 6.8 °F 4.3 °F 1018.5 in Calm     84 % 0.0 in 0.0 W/m2 OVC
18:06 6.8 °F 4.3 °F 1018.5 in Calm     84 % 0.0 in 0.0 W/m2 CLR
18:11 6.8 °F 4.3 °F 1018.5 in Calm     84 % 0.0 in 0.0 W/m2 CLR
18:16 6.8 °F 4.3 °F 1018.5 in Calm     84 % 0.0 in 0.0 W/m2 CLR
18:21 6.8 °F 4.1 °F 1018.8 in Calm     83 % 0.0 in 0.0 W/m2 CLR
18:26 6.8 °F 4.1 °F 1018.5 in Calm     83 % 0.0 in 0.0 W/m2 CLR
18:31 6.8 °F 3.9 °F 1018.8 in Calm     82 % 0.0 in 0.0 W/m2 CLR
18:36 6.8 °F 4.3 °F 1018.8 in Calm     84 % 0.0 in 0.0 W/m2 CLR
18:41 6.6 °F 3.9 °F 1018.8 in Calm     83 % 0.3 in 0.0 W/m2 RA
18:46 6.6 °F 4.1 °F 1018.8 in Calm     84 % 0.3 in 0.0 W/m2 CLR
18:51 6.5 °F 4.0 °F 1018.8 in Calm     84 % 0.3 in 0.0 W/m2 CLR
18:56 6.4 °F 3.9 °F 1018.8 in Calm     84 % 0.3 in 0.0 W/m2 CLR
19:01 6.4 °F 4.1 °F 1018.8 in Calm     85 % 0.3 in 0.0 W/m2 CLR
19:06 6.3 °F 4.0 °F 1018.8 in Calm     85 % 0.3 in 0.0 W/m2 CLR
19:11 6.2 °F 4.2 °F 1018.8 in Calm     87 % 0.3 in 0.0 W/m2 CLR
19:16 6.1 °F 4.1 °F 1019.2 in Calm     87 % 0.3 in 0.0 W/m2 CLR
19:21 6.1 °F 4.1 °F 1019.2 in Calm     87 % 0.3 in 0.0 W/m2 CLR
19:26 6.2 °F 4.0 °F 1019.2 in Calm     86 % 0.5 in 0.0 W/m2 RA
19:31 6.2 °F 4.0 °F 1019.2 in Calm     86 % 0.5 in 0.0 W/m2 CLR
19:36 6.2 °F 4.1 °F 1019.2 in Calm     86 % 0.5 in 0.0 W/m2 CLR
19:41 6.1 °F 4.1 °F 1019.2 in Calm     87 % 0.3 in 0.0 W/m2 CLR
19:46 5.9 °F 4.1 °F 1019.2 in Calm     88 % 0.5 in 0.0 W/m2 RA
19:51 5.8 °F 4.1 °F 1019.2 in Calm     89 % 0.5 in 0.0 W/m2 CLR
19:56 5.7 °F 4.1 °F 1019.2 in Calm     89 % 0.5 in 0.0 W/m2 CLR
20:01 5.7 °F 4.2 °F 1019.2 in Calm     90 % 0.5 in 0.0 W/m2 CLR
20:06 5.6 °F 4.1 °F 1019.2 in Calm     90 % 0.5 in 0.0 W/m2 CLR
20:12 5.6 °F 4.1 °F 1019.2 in Calm     90 % 0.5 in 0.0 W/m2 CLR
20:17 5.6 °F 4.1 °F 1019.2 in Calm     90 % 0.5 in 0.0 W/m2 CLR
20:22 5.7 °F 4.1 °F 1019.2 in Calm     89 % 0.5 in 0.0 W/m2 CLR
20:27 5.8 °F 4.2 °F 1019.2 in Calm     89 % 0.3 in 0.0 W/m2 CLR
20:32 5.8 °F 4.1 °F 1019.2 in Calm     89 % 0.3 in 0.0 W/m2 CLR
20:37 5.7 °F 4.2 °F 1019.5 in Calm     90 % 0.3 in 0.0 W/m2 CLR
20:42 5.7 °F 4.2 °F 1019.5 in Calm     90 % 0.3 in 0.0 W/m2 CLR
20:47 5.8 °F 4.1 °F 1019.9 in Calm     89 % 0.0 in 0.0 W/m2 CLR
20:52 5.8 °F 4.1 °F 1019.9 in Calm     89 % 0.0 in 0.0 W/m2 CLR
20:57 5.8 °F 4.1 °F 1019.9 in Calm     89 % 0.0 in 0.0 W/m2 CLR
21:02 5.8 °F 4.1 °F 1019.9 in Calm     89 % 0.0 in 0.0 W/m2 CLR
21:07 5.7 °F 4.1 °F 1019.9 in Calm     89 % 0.3 in 0.0 W/m2 RA
21:12 5.7 °F 4.1 °F 1019.9 in Calm     89 % 0.5 in 0.0 W/m2 RA
21:17 5.7 °F 4.1 °F 1019.9 in Calm     89 % 0.5 in 0.0 W/m2
21:22 5.7 °F 4.1 °F 1019.9 in NW 11.3 mph 11.3 mph 89 % 0.5 in 0.0 W/m2 RA
21:27 5.8 °F 3.9 °F 1019.9 in WNW 11.1 mph 11.1 mph 88 % 0.5 in 0.0 W/m2
21:32 5.8 °F 3.9 °F 1019.9 in WNW 9.3 mph 9.3 mph 88 % 0.5 in 0.0 W/m2 CLR
21:37 5.8 °F 3.8 °F 1019.5 in WNW 9.7 mph 9.7 mph 87 % 0.5 in 0.0 W/m2 CLR
21:42 5.8 °F 3.8 °F 1019.5 in WNW 18.5 mph 18.5 mph 87 % 0.5 in 0.0 W/m2 CLR
21:47 5.8 °F 3.7 °F 1019.5 in WNW 18.5 mph 18.5 mph 86 % 0.5 in 0.0 W/m2 CLR
21:52 5.9 °F 3.7 °F 1019.5 in WNW 11.1 mph 11.1 mph 86 % 0.5 in 0.0 W/m2 CLR
21:57 5.9 °F 3.7 °F 1019.9 in WNW 11.1 mph 11.1 mph 86 % 0.5 in 0.0 W/m2 CLR
22:02 5.9 °F 3.8 °F 1019.9 in WNW 9.3 mph 9.3 mph 86 % 0.5 in 0.0 W/m2 CLR
22:07 5.9 °F 3.7 °F 1019.9 in WNW 6.4 mph 6.4 mph 86 % 0.5 in 0.0 W/m2 CLR
22:12 5.9 °F 3.8 °F 1019.9 in Calm     86 % 0.5 in 0.0 W/m2 RA
22:17 5.9 °F 3.7 °F 1019.9 in West 11.1 mph 11.1 mph 86 % 0.5 in 0.0 W/m2 CLR
22:22 5.9 °F 3.7 °F 1020.2 in WNW 9.7 mph 9.7 mph 86 % 0.3 in 0.0 W/m2 CLR
22:27 5.9 °F 3.8 °F 1019.9 in WNW 9.3 mph 9.3 mph 86 % 0.3 in 0.0 W/m2 CLR
22:32 5.9 °F 3.8 °F 1019.9 in WNW 7.4 mph 7.4 mph 86 % 0.3 in 0.0 W/m2 CLR
22:37 5.8 °F 3.7 °F 1019.9 in WNW 13.0 mph 13.0 mph 86 % 0.3 in 0.0 W/m2 CLR
22:42 5.9 °F 3.7 °F 1020.2 in WNW 11.1 mph 11.1 mph 86 % 0.5 in 0.0 W/m2 RA
22:47 5.8 °F 3.8 °F 1020.2 in WNW 9.7 mph 9.7 mph 87 % 0.5 in 0.0 W/m2 CLR
22:52 5.7 °F 3.7 °F 1019.9 in WNW 13.0 mph 13.0 mph 87 % 0.5 in 0.0 W/m2 CLR
22:57 5.7 °F 3.7 °F 1020.2 in WNW 14.8 mph 14.8 mph 87 % 0.5 in 0.0 W/m2 CLR
23:02 5.7 °F 3.7 °F 1019.9 in WNW 14.5 mph 14.5 mph 87 % 0.5 in 0.0 W/m2 CLR
23:07 5.8 °F 3.6 °F 1020.2 in WNW 16.7 mph 16.7 mph 86 % 0.5 in 0.0 W/m2 CLR
23:12 5.8 °F 3.6 °F 1020.2 in WNW 14.8 mph 14.8 mph 86 % 0.5 in 0.0 W/m2 CLR
23:17 5.8 °F 3.8 °F 1020.2 in WNW 14.8 mph 14.8 mph 87 % 0.5 in 0.0 W/m2 CLR
23:22 5.7 °F 3.6 °F 1020.2 in WNW 13.0 mph 13.0 mph 86 % 0.5 in 0.0 W/m2 CLR
23:27 5.8 °F 3.7 °F 1019.9 in WNW 19.3 mph 19.3 mph 86 % 0.5 in 0.0 W/m2 CLR
23:32 5.8 °F 3.5 °F 1019.9 in WNW 18.5 mph 18.5 mph 85 % 0.5 in 0.0 W/m2 CLR
23:37 5.9 °F 3.6 °F 1020.2 in WNW 20.4 mph 20.4 mph 85 % 0.5 in 0.0 W/m2 CLR
23:42 5.9 °F 3.6 °F 1020.2 in WNW 18.5 mph 18.5 mph 85 % 0.0 in 0.0 W/m2 CLR
23:47 5.8 °F 3.5 °F 1019.9 in WNW 24.1 mph 24.1 mph 85 % 0.0 in 0.0 W/m2 CLR
23:52 5.8 °F 3.5 °F 1019.9 in WNW 24.1 mph 24.1 mph 85 % 0.0 in 0.0 W/m2 CLR
23:57 5.8 °F 3.5 °F 1019.9 in WNW 22.2 mph 22.2 mph 85 % 0.0 in 0.0 W/m2 CLR
Lo Temps de Massalio
Compliments of Weather Underground - 1.25 mb